Time;durP1;ratioP1;P1;durP2;ratioP2;P2;SDS_P1;SDS_P2;PMS_P1;PMS_P2;Temp;Humidity;BMP_temperature;BMP_pressure;BME280_temperature;BME280_humidity;BME280_pressure;Samples;Min_cycle;Max_cycle;Signal;HPM_P1;HPM_P2
2022/10/07 00:02:05;;;;;;;2.57;1.60;;;;;;;12.61;89.10;100943.06;5094742;28;20216;-66
2022/10/07 00:04:36;;;;;;;1.17;1.08;;;;;;;12.58;89.22;100937.91;5094719;28;20060;-65
2022/10/07 00:07:05;;;;;;;1.85;1.52;;;;;;;12.60;89.36;100946.44;5095015;28;20044;-66
2022/10/07 00:09:33;;;;;;;0.95;0.90;;;;;;;12.62;89.45;100950.75;5094551;28;20093;-65
2022/10/07 00:12:02;;;;;;;4.07;2.57;;;;;;;12.63;89.26;100954.19;5094394;28;20051;-66
2022/10/07 00:14:31;;;;;;;1.88;1.30;;;;;;;12.60;89.06;100944.75;5094831;28;20064;-65
2022/10/07 00:17:00;;;;;;;1.80;1.70;;;;;;;12.61;89.11;100945.63;5094822;28;20070;-66
2022/10/07 00:19:28;;;;;;;1.33;1.23;;;;;;;12.61;89.11;100948.19;5094545;28;20046;-66
2022/10/07 00:21:59;;;;;;;2.63;0.90;;;;;;;12.59;89.21;100940.50;5094469;28;20040;-66
2022/10/07 00:24:27;;;;;;;0.65;0.65;;;;;;;12.55;89.07;100940.41;5094665;28;20075;-65
2022/10/07 00:26:56;;;;;;;1.27;1.02;;;;;;;12.55;88.91;100936.16;5094549;28;20467;-65
2022/10/07 00:29:25;;;;;;;1.70;1.40;;;;;;;12.57;89.05;100938.75;5092988;28;20040;-66
2022/10/07 00:31:54;;;;;;;1.10;1.00;;;;;;;12.56;88.96;100939.59;5094573;28;20535;-66
2022/10/07 00:34:25;;;;;;;1.77;1.67;;;;;;;12.53;89.10;100924.16;5094456;28;20072;-66
2022/10/07 00:36:54;;;;;;;2.05;1.73;;;;;;;12.58;89.25;100941.31;5094748;28;20035;-66
2022/10/07 00:39:24;;;;;;;0.68;0.50;;;;;;;12.60;89.39;100941.31;5092905;28;20093;-66
2022/10/07 00:41:53;;;;;;;1.20;0.98;;;;;;;12.58;89.35;100938.75;5094502;28;20040;-66
2022/10/07 00:44:40;;;;;;;1.45;1.10;;;;;;;12.55;89.23;100932.72;5093414;28;20043;-66
2022/10/07 00:47:19;;;;;;;2.78;1.70;;;;;;;12.47;88.94;100929.25;5094037;28;20052;-66
2022/10/07 00:49:54;;;;;;;1.88;1.77;;;;;;;12.40;89.00;100922.31;5093960;28;20040;-66
2022/10/07 00:52:26;;;;;;;0.93;0.77;;;;;;;12.36;89.18;100930.78;5094276;28;20135;-65
2022/10/07 00:54:59;;;;;;;1.98;1.70;;;;;;;12.45;89.17;100929.19;5094139;28;20555;-66
2022/10/07 00:57:30;;;;;;;1.15;1.05;;;;;;;12.47;89.21;100924.13;5093957;28;20044;-66
2022/10/07 01:00:00;;;;;;;1.45;1.35;;;;;;;12.36;89.23;100915.44;5093378;28;20056;-66
2022/10/07 01:02:30;;;;;;;0.88;0.80;;;;;;;12.41;89.35;100918.91;5094109;28;20068;-66
2022/10/07 01:05:03;;;;;;;1.98;1.17;;;;;;;12.41;89.23;100924.03;5092641;28;20430;-66
2022/10/07 01:07:32;;;;;;;2.90;1.73;;;;;;;12.36;89.23;100920.56;5093990;28;20414;-66
2022/10/07 01:10:04;;;;;;;1.08;0.93;;;;;;;12.35;89.08;100916.28;5093679;28;20122;-66
2022/10/07 01:12:44;;;;;;;2.35;1.60;;;;;;;12.30;88.92;100912.81;5093595;28;20118;-66
2022/10/07 01:15:24;;;;;;;1.00;0.95;;;;;;;12.27;89.12;100911.06;5094242;28;20441;-66
2022/10/07 01:18:00;;;;;;;0.77;0.77;;;;;;;12.25;89.12;100910.19;5093954;28;20401;-66
2022/10/07 01:20:38;;;;;;;1.67;1.25;;;;;;;12.19;89.14;100911.84;5093606;28;20052;-65
2022/10/07 01:23:36;;;;;;;1.30;1.20;;;;;;;12.09;89.06;100906.56;5093568;28;20048;-66
2022/10/07 01:26:35;;;;;;;0.60;0.60;;;;;;;12.01;88.86;100913.31;5093385;28;20498;-66
2022/10/07 01:29:11;;;;;;;1.10;1.00;;;;;;;12.03;88.85;100911.63;5092581;28;20080;-66
2022/10/07 01:31:46;;;;;;;2.35;1.23;;;;;;;12.00;88.74;100911.59;5093601;28;20051;-66
2022/10/07 01:34:16;;;;;;;3.05;1.98;;;;;;;11.99;88.77;100904.75;5094081;28;20482;-66
2022/10/07 01:36:50;;;;;;;1.60;1.05;;;;;;;12.06;88.69;100901.44;5092521;28;20058;-66
2022/10/07 01:39:26;;;;;;;1.55;1.25;;;;;;;12.02;88.69;100902.22;5093433;28;20044;-66
2022/10/07 01:41:57;;;;;;;1.35;1.25;;;;;;;11.94;88.48;100905.53;5093416;28;20063;-66
2022/10/07 01:44:29;;;;;;;1.13;1.02;;;;;;;11.90;88.59;100899.50;5109484;28;20055;-66
2022/10/07 01:46:59;;;;;;;1.17;1.02;;;;;;;11.87;88.47;100902.03;5092429;28;20070;-66
2022/10/07 01:49:28;;;;;;;0.82;0.80;;;;;;;11.81;88.21;100904.50;5093536;28;20079;-66
2022/10/07 01:52:31;;;;;;;2.47;2.13;;;;;;;11.76;88.19;100895.91;5092098;28;20074;-66
2022/10/07 01:55:19;;;;;;;0.45;0.45;;;;;;;11.77;88.32;100889.97;5093583;28;20117;-66
2022/10/07 01:57:59;;;;;;;1.92;1.75;;;;;;;11.84;88.43;100889.19;5092351;28;20048;-66
2022/10/07 02:00:30;;;;;;;1.95;1.55;;;;;;;11.88;88.31;100900.31;5093571;28;20048;-66
2022/10/07 02:03:28;;;;;;;1.08;0.98;;;;;;;11.89;88.57;100886.69;5091993;28;20048;-66
2022/10/07 02:06:06;;;;;;;1.13;0.80;;;;;;;11.85;88.48;100883.22;5051744;28;20387;-66
2022/10/07 02:08:42;;;;;;;1.00;0.98;;;;;;;11.77;88.46;100889.97;5092247;28;20512;-66
2022/10/07 02:11:15;;;;;;;0.73;0.73;;;;;;;11.78;88.28;100888.28;5093096;28;20447;-66
2022/10/07 02:13:57;;;;;;;2.80;1.45;;;;;;;11.73;87.68;100889.91;5096511;28;20114;-66
2022/10/07 02:16:34;;;;;;;1.40;1.30;;;;;;;11.61;88.00;100880.31;5096947;28;20047;-66
2022/10/07 02:19:09;;;;;;;0.60;0.60;;;;;;;11.57;88.18;100891.31;5095901;28;20482;-66
2022/10/07 02:21:41;;;;;;;1.25;1.15;;;;;;;11.54;87.97;100891.28;5095606;28;20046;-66
2022/10/07 02:24:12;;;;;;;0.60;0.60;;;;;;;11.51;88.04;100882.72;5095834;28;20079;-66
2022/10/07 02:26:43;;;;;;;0.82;0.82;;;;;;;11.53;88.02;100876.78;5095808;28;20515;-66
2022/10/07 02:29:19;;;;;;;0.75;0.75;;;;;;;11.45;87.82;100879.22;5096893;28;20482;-66
2022/10/07 02:31:52;;;;;;;1.13;1.00;;;;;;;11.43;87.84;100882.59;5096801;28;20048;-66
2022/10/07 02:34:25;;;;;;;0.80;0.80;;;;;;;11.37;87.78;100888.47;5095341;28;20075;-66
2022/10/07 02:36:59;;;;;;;0.60;0.60;;;;;;;11.31;87.51;100884.97;5096495;28;20520;-66
2022/10/07 02:39:30;;;;;;;1.30;1.20;;;;;;;11.23;87.27;100882.28;5095509;28;20048;-66
2022/10/07 02:42:04;;;;;;;2.97;1.25;;;;;;;11.23;87.33;100883.97;5096689;28;20117;-66
2022/10/07 02:44:42;;;;;;;12.30;1.10;;;;;;;11.25;87.35;100887.44;5096647;28;20059;-66
2022/10/07 02:47:17;;;;;;;1.17;1.08;;;;;;;11.23;87.42;100887.41;5095419;28;20050;-66
2022/10/07 02:49:52;;;;;;;0.95;0.63;;;;;;;11.26;87.45;100894.25;5096174;28;20405;-66
2022/10/07 02:52:23;;;;;;;2.67;1.90;;;;;;;11.20;87.50;100881.38;5096832;28;20040;-66
2022/10/07 02:54:58;;;;;;;0.75;0.75;;;;;;;11.19;87.39;100893.31;5095347;28;20048;-66
2022/10/07 02:57:32;;;;;;;0.98;0.88;;;;;;;11.15;87.14;100877.91;5096158;28;20048;-66
2022/10/07 03:00:03;;;;;;;1.23;1.13;;;;;;;11.07;87.17;100885.44;5096281;28;20055;-66
2022/10/07 03:02:50;;;;;;;0.70;0.70;;;;;;;11.01;87.22;100879.38;5096013;28;20044;-66
2022/10/07 03:05:20;;;;;;;0.50;0.50;;;;;;;11.02;86.91;100875.97;5094851;28;20449;-66
2022/10/07 03:07:55;;;;;;;0.63;0.52;;;;;;;11.08;87.01;100871.84;5094980;28;20413;-66
2022/10/07 03:10:27;;;;;;;1.42;1.33;;;;;;;11.11;86.83;100871.88;5094846;28;20040;-66
2022/10/07 03:12:57;;;;;;;0.40;0.40;;;;;;;11.12;86.91;100873.59;5095748;28;20052;-66
2022/10/07 03:15:27;;;;;;;0.40;0.40;;;;;;;11.14;86.97;100877.03;5094899;28;20083;-66
2022/10/07 03:17:57;;;;;;;0.40;0.40;;;;;;;11.12;87.03;100871.03;5095998;28;20052;-66
2022/10/07 03:20:29;;;;;;;0.55;0.55;;;;;;;11.12;86.97;100873.59;5095617;28;20075;-66
2022/10/07 03:22:58;;;;;;;0.82;0.70;;;;;;;11.12;87.02;100872.72;5095198;28;20072;-66
2022/10/07 03:25:27;;;;;;;1.02;0.88;;;;;;;11.07;86.71;100879.47;5095818;28;20056;-66
2022/10/07 03:27:56;;;;;;;0.50;0.50;;;;;;;10.97;86.53;100880.13;5094321;28;20094;-66
2022/10/07 03:30:25;;;;;;;1.57;1.43;;;;;;;10.91;86.51;100882.59;5094162;28;20048;-66
2022/10/07 03:32:56;;;;;;;0.50;0.50;;;;;;;10.92;86.75;100880.06;5095318;28;20506;-66
2022/10/07 03:35:24;;;;;;;0.68;0.68;;;;;;;10.87;86.28;100871.44;5095361;28;20048;-66
2022/10/07 03:37:54;;;;;;;0.73;0.73;;;;;;;10.86;86.50;100874.00;5094404;28;20119;-66
2022/10/07 03:40:22;;;;;;;1.10;1.00;;;;;;;10.84;86.38;100873.13;5094420;28;20040;-66
2022/10/07 03:42:51;;;;;;;25.35;2.92;;;;;;;10.81;86.31;100870.50;5095170;28;20555;-66
2022/10/07 03:45:20;;;;;;;4.63;3.42;;;;;;;10.75;86.35;100874.66;5093913;28;20053;-66
2022/10/07 03:47:49;;;;;;;2.75;2.38;;;;;;;10.75;86.45;100877.22;5095047;28;20044;-66
2022/10/07 03:50:19;;;;;;;1.52;1.20;;;;;;;10.80;86.06;100879.00;5093770;28;20135;-66
2022/10/07 03:52:48;;;;;;;1.33;1.17;;;;;;;10.76;86.34;100876.41;5093746;28;20044;-65
2022/10/07 03:55:17;;;;;;;2.92;2.67;;;;;;;10.72;85.96;100876.31;5095241;28;20040;-66
2022/10/07 03:57:52;;;;;;;2.70;2.30;;;;;;;10.68;85.90;100885.59;5094103;28;20036;-66
2022/10/07 04:00:28;;;;;;;1.42;1.33;;;;;;;10.59;85.77;100874.34;5095172;28;20477;-66
2022/10/07 04:02:58;;;;;;;2.80;2.30;;;;;;;10.44;85.97;100879.16;5094756;28;20089;-66
2022/10/07 04:05:29;;;;;;;1.35;1.20;;;;;;;10.40;86.21;100872.31;5093838;28;20044;-66
2022/10/07 04:07:57;;;;;;;2.17;1.98;;;;;;;10.36;86.16;100876.50;5094726;28;20109;-66
2022/10/07 04:10:27;;;;;;;1.60;1.50;;;;;;;10.25;85.71;100865.19;5094616;28;20117;-66
2022/10/07 04:12:56;;;;;;;3.10;2.83;;;;;;;10.19;85.92;100862.56;5093165;28;20050;-66
2022/10/07 04:15:24;;;;;;;0.70;0.70;;;;;;;10.13;85.76;100852.22;5094672;28;20044;-66
2022/10/07 04:17:57;;;;;;;0.55;0.55;;;;;;;10.19;85.93;100857.44;5093216;28;20119;-66
2022/10/07 04:20:28;;;;;;;1.08;0.90;;;;;;;10.19;86.33;100859.13;5094512;28;20048;-66
2022/10/07 04:22:57;;;;;;;3.17;1.40;;;;;;;10.18;86.01;100858.25;5093587;28;20067;-66
2022/10/07 04:28:16;;;;;;;2.25;2.05;;;;;;;10.15;86.26;100855.63;5094636;28;20138;-66
2022/10/07 04:30:50;;;;;;;1.05;1.00;;;;;;;10.17;86.58;100853.13;5094525;28;20393;-66
2022/10/07 04:33:24;;;;;;;2.67;1.95;;;;;;;10.19;86.33;100848.94;5094439;28;20130;-66
2022/10/07 04:35:57;;;;;;;1.60;1.50;;;;;;;10.20;86.03;100853.22;5093473;28;20047;-66
2022/10/07 04:38:25;;;;;;;2.53;1.45;;;;;;;10.20;86.19;100854.03;5094481;28;20048;-66
2022/10/07 04:41:04;;;;;;;0.70;0.70;;;;;;;10.26;86.57;100851.63;5093307;28;20110;-66
2022/10/07 04:43:34;;;;;;;1.25;1.15;;;;;;;10.28;86.08;100859.31;5094081;28;20079;-66
2022/10/07 04:46:13;;;;;;;3.45;1.77;;;;;;;10.31;86.22;100851.72;5094380;28;20571;-66
2022/10/07 04:48:52;;;;;;;1.45;1.30;;;;;;;10.40;86.18;100857.84;5093125;28;20056;-66
2022/10/07 04:51:27;;;;;;;2.90;1.92;;;;;;;10.43;86.16;100849.41;5093916;28;20044;-66
2022/10/07 04:53:58;;;;;;;1.17;0.93;;;;;;;10.36;86.31;100852.66;5092682;28;20074;-66
2022/10/07 04:56:54;;;;;;;1.08;1.00;;;;;;;10.35;86.75;100859.47;5091608;28;20498;-66
2022/10/07 04:59:25;;;;;;;1.70;1.10;;;;;;;10.36;86.62;100858.63;5094115;28;20505;-66
2022/10/07 05:01:58;;;;;;;4.60;1.80;;;;;;;10.34;86.62;100857.72;5094119;28;20417;-66
2022/10/07 05:04:29;;;;;;;1.67;0.70;;;;;;;10.26;86.64;100855.88;5092909;28;20080;-66
2022/10/07 05:07:00;;;;;;;0.70;0.70;;;;;;;10.24;86.48;100850.75;5093745;28;20075;-66
2022/10/07 05:09:31;;;;;;;1.00;1.00;;;;;;;10.21;86.32;100853.22;5093727;28;20048;-66
2022/10/07 05:12:00;;;;;;;0.88;0.75;;;;;;;10.17;86.19;100858.25;5092273;28;20047;-66
2022/10/07 05:14:31;;;;;;;1.58;1.17;;;;;;;10.10;86.91;100857.25;5093738;28;20036;-66
2022/10/07 05:17:02;;;;;;;2.45;1.38;;;;;;;10.05;86.44;100858.84;5093628;28;20052;-66
2022/10/07 05:19:35;;;;;;;0.98;0.60;;;;;;;10.02;86.95;100849.44;5093705;28;20510;-66
2022/10/07 05:22:06;;;;;;;1.17;0.95;;;;;;;10.07;86.45;100857.16;5093628;28;20102;-66
2022/10/07 05:24:35;;;;;;;4.05;2.38;;;;;;;10.13;86.36;100856.44;5092361;28;20429;-66
2022/10/07 05:27:04;;;;;;;1.02;0.93;;;;;;;10.14;86.46;100851.41;5093498;28;20039;-66
2022/10/07 05:29:33;;;;;;;1.05;0.93;;;;;;;10.18;86.99;100859.94;5092255;28;20044;-66
2022/10/07 05:32:02;;;;;;;1.00;0.98;;;;;;;10.24;87.03;100862.63;5092288;28;20037;-66
2022/10/07 05:34:33;;;;;;;0.65;0.65;;;;;;;10.30;86.52;100861.06;5093742;28;20097;-66
2022/10/07 05:37:02;;;;;;;0.95;0.75;;;;;;;10.33;86.78;100862.81;5093718;28;20036;-66
2022/10/07 05:39:33;;;;;;;0.63;0.63;;;;;;;10.35;86.94;100854.34;5093396;28;20048;-65
2022/10/07 05:42:12;;;;;;;5.00;1.80;;;;;;;10.41;86.82;100859.59;5093470;28;20044;-66
2022/10/07 05:44:51;;;;;;;1.33;1.23;;;;;;;10.51;87.34;100860.63;5092484;28;20367;-65
2022/10/07 05:47:21;;;;;;;2.35;2.05;;;;;;;10.66;87.64;100858.31;5094962;28;20048;-65
2022/10/07 05:49:53;;;;;;;0.88;0.88;;;;;;;10.78;87.62;100863.63;5096163;28;20051;-65
2022/10/07 05:52:22;;;;;;;3.45;0.95;;;;;;;10.88;87.92;100862.09;5096372;28;20406;-65
2022/10/07 05:54:54;;;;;;;1.75;1.33;;;;;;;10.99;87.84;100860.59;5097273;28;20055;-65
2022/10/07 05:57:23;;;;;;;0.82;0.82;;;;;;;11.11;87.99;100853.97;5095955;28;20044;-65
2022/10/07 05:59:52;;;;;;;2.07;1.40;;;;;;;11.24;87.95;100849.94;5097116;28;20482;-66
2022/10/07 06:02:22;;;;;;;1.20;1.00;;;;;;;11.35;87.97;100856.06;5097145;28;20051;-66
2022/10/07 06:04:51;;;;;;;0.98;0.90;;;;;;;11.45;88.17;100853.66;5096215;28;20043;-66
2022/10/07 06:07:24;;;;;;;0.77;0.60;;;;;;;11.59;87.98;100856.41;5096984;28;20070;-66
2022/10/07 06:15:18;;;;;;;2.67;2.25;;;;;;;11.87;88.00;100868.78;5096143;28;20127;-66
2022/10/07 06:17:48;;;;;;;1.13;1.05;;;;;;;12.00;87.92;100880.88;5097148;28;20051;-65
2022/10/07 06:20:19;;;;;;;1.38;1.27;;;;;;;12.19;87.97;100876.00;5097046;28;20055;-66
2022/10/07 06:22:52;;;;;;;2.28;2.08;;;;;;;12.37;87.74;100881.31;5096665;28;20054;-66
2022/10/07 06:25:23;;;;;;;2.45;1.90;;;;;;;12.43;87.59;100873.72;5095528;28;20051;-66
2022/10/07 06:27:56;;;;;;;1.30;1.20;;;;;;;12.49;87.74;100873.78;5096552;28;20553;-66
2022/10/07 06:30:28;;;;;;;0.90;0.85;;;;;;;12.56;87.58;100880.69;5096720;28;20044;-66
2022/10/07 06:32:59;;;;;;;2.47;1.23;;;;;;;12.65;87.41;100883.31;5096482;28;20112;-66
2022/10/07 06:35:28;;;;;;;0.77;0.77;;;;;;;12.72;87.30;100874.84;5095347;28;20493;-66
2022/10/07 06:37:58;;;;;;;1.27;0.93;;;;;;;12.80;87.44;100873.25;5095301;28;20040;-66
2022/10/07 06:40:28;;;;;;;1.70;1.00;;;;;;;12.92;87.72;100873.34;5095492;28;20036;-65
2022/10/07 06:42:58;;;;;;;1.70;0.98;;;;;;;13.05;87.88;100870.03;5096703;28;20109;-66
2022/10/07 06:45:36;;;;;;;1.73;1.17;;;;;;;13.18;87.81;100873.59;5096288;28;20072;-66
2022/10/07 06:48:04;;;;;;;1.73;1.30;;;;;;;13.31;87.59;100863.47;5095041;28;20534;-66
2022/10/07 06:50:33;;;;;;;1.10;1.00;;;;;;;13.41;87.95;100867.78;5094999;28;20040;-66
2022/10/07 06:53:02;;;;;;;0.87;0.67;;;;;;;13.53;87.82;100871.28;5094879;28;20041;-66
2022/10/07 06:55:36;;;;;;;1.35;1.15;;;;;;;13.64;87.54;100861.94;5096483;28;20291;-66
2022/10/07 06:58:06;;;;;;;2.38;1.63;;;;;;;13.74;87.53;100864.59;5095523;28;20092;-67
2022/10/07 07:00:41;;;;;;;1.08;0.88;;;;;;;13.87;87.37;100866.34;5096267;28;20043;-67
2022/10/07 07:03:11;;;;;;;6.40;1.48;;;;;;;13.99;86.66;100868.09;5096210;28;20413;-66
2022/10/07 07:05:41;;;;;;;3.28;2.22;;;;;;;14.09;86.97;100860.47;5095904;28;20056;-66
2022/10/07 07:08:18;;;;;;;1.60;1.10;;;;;;;14.15;86.01;100871.59;5093765;28;20155;-67
2022/10/07 07:10:49;;;;;;;1.83;1.38;;;;;;;14.17;86.03;100870.78;5094603;28;20394;-67
2022/10/07 07:13:18;;;;;;;1.23;0.85;;;;;;;14.26;86.15;100863.09;5095279;28;20056;-67
2022/10/07 07:15:55;;;;;;;1.08;0.98;;;;;;;14.36;85.40;100862.31;5094766;28;20496;-67
2022/10/07 07:18:25;;;;;;;0.52;0.52;;;;;;;14.49;85.75;100869.16;5095668;28;20062;-67
2022/10/07 07:20:54;;;;;;;0.80;0.75;;;;;;;14.55;85.48;100858.91;5095845;28;20071;-67
2022/10/07 07:23:25;;;;;;;0.95;0.90;;;;;;;14.64;84.76;100858.94;5095849;28;20052;-67
2022/10/07 07:25:55;;;;;;;0.73;0.70;;;;;;;14.70;84.93;100856.38;5094494;28;20498;-67
2022/10/07 07:28:24;;;;;;;3.63;1.45;;;;;;;14.82;84.98;100852.09;5094535;28;20043;-66
2022/10/07 07:30:52;;;;;;;0.45;0.45;;;;;;;14.95;84.65;100851.28;5095459;28;20043;-67
2022/10/07 07:33:21;;;;;;;2.30;1.27;;;;;;;15.00;84.34;100847.81;5095141;28;20036;-67
2022/10/07 07:35:50;;;;;;;1.80;0.88;;;;;;;15.08;84.23;100851.25;5094034;28;20429;-67
2022/10/07 07:38:20;;;;;;;1.40;1.20;;;;;;;15.18;83.87;100852.13;5096338;28;20036;-66
2022/10/07 07:40:56;;;;;;;1.30;1.08;;;;;;;15.23;83.98;100850.41;5094266;28;20402;-67
2022/10/07 07:43:25;;;;;;;1.95;1.75;;;;;;;15.34;83.61;100848.66;5094098;28;20509;-67
2022/10/07 07:45:54;;;;;;;1.10;1.00;;;;;;;15.44;83.46;100847.78;5085473;28;20044;-66
2022/10/07 07:48:23;;;;;;;1.92;1.65;;;;;;;15.57;83.72;100848.66;5093869;28;20032;-66
2022/10/07 07:50:51;;;;;;;3.57;1.83;;;;;;;15.67;83.03;100852.94;5094097;28;20040;-67
2022/10/07 07:53:21;;;;;;;1.87;1.47;;;;;;;15.76;82.56;100848.63;5095481;28;20571;-67
2022/10/07 07:55:56;;;;;;;1.58;1.30;;;;;;;15.87;82.41;100846.84;5094891;28;20312;-67
2022/10/07 07:58:28;;;;;;;5.47;1.77;;;;;;;15.96;82.22;100851.97;5093471;28;20048;-68
2022/10/07 08:00:59;;;;;;;1.00;0.93;;;;;;;16.09;81.98;100851.06;5094697;28;20052;-67
2022/10/07 08:03:29;;;;;;;1.52;1.35;;;;;;;16.14;81.53;100845.88;5094738;28;20052;-67
2022/10/07 08:06:01;;;;;;;2.28;1.20;;;;;;;16.28;81.62;100845.81;5093588;28;20044;-67
2022/10/07 08:08:32;;;;;;;7.78;1.13;;;;;;;16.38;80.94;100850.06;5085737;28;20075;-67
2022/10/07 08:11:08;;;;;;;0.77;0.77;;;;;;;16.47;80.44;100840.56;5074063;28;20079;-68
2022/10/07 08:13:40;;;;;;;1.25;1.10;;;;;;;16.50;80.67;100834.53;5106956;28;20044;-67
2022/10/07 08:16:13;;;;;;;1.02;0.90;;;;;;;16.62;79.86;100839.63;5110625;28;20048;-67
2022/10/07 08:18:45;;;;;;;1.55;1.05;;;;;;;16.70;79.55;100838.69;5095098;28;20086;-67
2022/10/07 08:21:17;;;;;;;1.55;1.13;;;;;;;16.77;79.15;100840.38;5093257;28;20076;-67
2022/10/07 08:23:53;;;;;;;1.50;1.17;;;;;;;16.84;78.74;100841.19;5095238;28;20044;-67
2022/10/07 08:26:23;;;;;;;0.80;0.75;;;;;;;16.91;78.64;100829.09;5094827;28;20070;-67
2022/10/07 08:28:52;;;;;;;1.52;1.42;;;;;;;16.99;78.27;100827.31;5093125;28;20094;-66
2022/10/07 08:31:21;;;;;;;0.80;0.73;;;;;;;17.09;78.15;100822.06;5093068;28;20044;-66
2022/10/07 08:33:50;;;;;;;1.15;1.05;;;;;;;17.22;78.26;100817.66;5094087;28;20043;-66
2022/10/07 08:36:21;;;;;;;0.80;0.68;;;;;;;17.28;77.64;100823.59;5094567;28;20394;-66
2022/10/07 08:38:50;;;;;;;1.17;1.08;;;;;;;17.37;76.93;100822.66;5094498;28;20489;-67
2022/10/07 08:41:46;;;;;;;0.65;0.65;;;;;;;17.50;76.50;100824.25;5094320;28;20494;-66
2022/10/07 08:44:21;;;;;;;1.55;1.13;;;;;;;17.58;76.18;100816.44;5087580;28;20044;-67
2022/10/07 08:47:01;;;;;;;1.30;0.60;;;;;;;17.71;76.28;100812.84;5084361;28;20043;-67
2022/10/07 08:49:36;;;;;;;;;;;;;;;17.85;76.05;100810.97;5094678;28;20044;-67
2022/10/07 08:52:19;;;;;;;2.63;1.20;;;;;;;17.99;75.56;100809.06;5092772;28;20286;-67
2022/10/07 08:54:48;;;;;;;1.50;1.10;;;;;;;18.05;74.94;100808.97;5093906;28;20044;-66
2022/10/07 08:57:29;;;;;;;1.70;1.07;;;;;;;18.25;75.28;100801.81;5094176;28;20557;-67
2022/10/07 09:00:04;;;;;;;1.15;0.93;;;;;;;18.36;74.73;100794.75;5085012;28;20044;-67
2022/10/07 09:02:42;;;;;;;1.40;1.20;;;;;;;18.49;74.33;100796.31;5078831;28;20040;-68
2022/10/07 09:05:20;;;;;;;5.32;2.15;;;;;;;18.63;74.15;100784.03;5081456;28;20055;-67
2022/10/07 09:07:53;;;;;;;1.35;0.95;;;;;;;18.79;73.81;100784.63;5082702;28;20131;-67
2022/10/07 09:10:33;;;;;;;0.57;0.57;;;;;;;18.88;72.92;100788.81;5092977;28;20633;-67
2022/10/07 09:13:11;;;;;;;1.42;1.10;;;;;;;18.95;72.41;100785.25;5093603;28;20044;-67
2022/10/07 09:16:01;;;;;;;4.22;1.25;;;;;;;19.08;71.62;100786.72;5092402;28;20044;-68
2022/10/07 09:18:34;;;;;;;0.88;0.82;;;;;;;19.28;71.72;100782.03;5085001;28;20074;-67
2022/10/07 09:21:07;;;;;;;0.80;0.80;;;;;;;19.30;70.76;100777.69;5090985;28;20044;-66
2022/10/07 09:23:36;;;;;;;3.53;1.45;;;;;;;19.44;70.48;100780.91;5092557;28;20398;-67
2022/10/07 09:26:09;;;;;;;0.77;0.77;;;;;;;19.49;70.10;100779.06;5088833;28;20134;-67
2022/10/07 09:28:40;;;;;;;1.38;1.27;;;;;;;19.56;69.76;100770.31;5093886;28;20048;-66
2022/10/07 09:31:14;;;;;;;1.67;1.50;;;;;;;19.68;69.55;100764.00;5093735;28;20510;-67
2022/10/07 09:33:48;;;;;;;1.63;1.48;;;;;;;19.87;68.45;100765.34;5093041;28;20509;-66
2022/10/07 09:36:18;;;;;;;1.77;1.67;;;;;;;19.90;68.25;100768.72;5093613;28;20544;-67
2022/10/07 09:38:51;;;;;;;2.35;1.33;;;;;;;19.90;67.83;100760.97;5093429;28;20070;-67
2022/10/07 09:41:23;;;;;;;1.55;1.38;;;;;;;19.90;68.00;100758.38;5093415;28;20047;-67
2022/10/07 09:44:07;;;;;;;2.45;2.13;;;;;;;20.06;68.48;100762.31;5092687;28;20063;-67
2022/10/07 09:46:45;;;;;;;0.95;0.80;;;;;;;20.21;68.72;100755.09;5082367;28;20036;-67
2022/10/07 09:49:38;;;;;;;1.02;0.95;;;;;;;20.46;68.43;100751.06;5088607;28;20490;-67
2022/10/07 09:52:16;;;;;;;1.52;1.20;;;;;;;20.65;67.84;100749.75;5093565;28;20490;-67
2022/10/07 09:54:47;;;;;;;1.25;1.08;;;;;;;20.65;66.61;100742.81;5093492;28;20048;-67
2022/10/07 09:57:27;;;;;;;2.10;1.00;;;;;;;20.71;66.13;100744.38;5092088;28;20055;-67
2022/10/07 10:00:17;;;;;;;0.77;0.77;;;;;;;20.78;65.80;100742.50;5088171;28;20046;-68
2022/10/07 10:02:50;;;;;;;0.65;0.65;;;;;;;20.83;65.31;100736.28;5089420;28;20437;-66
2022/10/07 10:05:27;;;;;;;1.38;1.15;;;;;;;20.97;64.68;100744.56;5086555;28;20055;-67
2022/10/07 10:08:08;;;;;;;3.00;1.58;;;;;;;20.97;63.26;100731.59;5083665;28;20044;-66
2022/10/07 10:10:37;;;;;;;0.90;0.90;;;;;;;21.02;63.33;100721.94;5073795;28;20047;-67
2022/10/07 10:13:07;;;;;;;0.70;0.70;;;;;;;21.08;63.34;100729.59;5072849;28;20475;-67
2022/10/07 10:15:42;;;;;;;0.93;0.85;;;;;;;21.08;62.50;100727.00;5090948;28;20040;-67
2022/10/07 10:18:34;;;;;;;2.25;0.85;;;;;;;21.13;62.57;100719.09;5093392;28;20060;-66
2022/10/07 10:21:16;;;;;;;0.88;0.65;;;;;;;21.20;62.06;100720.63;5092182;28;20394;-66
2022/10/07 10:23:46;;;;;;;0.90;0.90;;;;;;;21.34;62.06;100708.97;5092903;28;20048;-66
2022/10/07 10:26:36;;;;;;;1.30;1.20;;;;;;;21.46;61.78;100701.72;5093261;28;20048;-68
2022/10/07 10:29:16;;;;;;;0.65;0.65;;;;;;;21.45;61.54;100700.03;5093333;28;20044;-67
2022/10/07 10:32:03;;;;;;;2.95;0.85;;;;;;;21.54;61.38;100697.16;5092939;28;20098;-66
2022/10/07 10:34:45;;;;;;;0.90;0.90;;;;;;;21.30;61.43;100638.97;5095728;28;20044;-67
2022/10/07 10:37:19;;;;;;;1.25;0.90;;;;;;;21.65;61.51;100684.69;5096452;28;20074;-69
2022/10/07 10:40:02;;;;;;;1.17;0.93;;;;;;;21.67;61.03;100682.88;5096692;28;20044;-67
2022/10/07 10:42:44;;;;;;;1.15;0.80;;;;;;;21.78;61.01;100679.09;5096434;28;20055;-66
2022/10/07 10:45:26;;;;;;;0.73;0.73;;;;;;;21.90;60.36;100667.50;5090281;28;20051;-67
2022/10/07 10:48:14;;;;;;;1.20;0.75;;;;;;;22.04;59.35;100665.28;5090526;28;20055;-68
2022/10/07 10:50:53;;;;;;;0.93;0.77;;;;;;;22.13;58.53;100667.59;5096209;28;20436;-66
2022/10/07 10:53:36;;;;;;;0.60;0.60;;;;;;;22.20;59.03;100650.88;5096509;28;20044;-67
2022/10/07 10:56:28;;;;;;;0.90;0.70;;;;;;;22.27;58.90;100647.19;5096057;28;20094;-68
2022/10/07 10:59:18;;;;;;;0.63;0.63;;;;;;;22.27;58.89;100644.59;5096320;28;20406;-68
2022/10/07 11:01:54;;;;;;;0.70;0.70;;;;;;;22.31;58.87;100642.75;5095995;28;20494;-65
2022/10/07 11:04:34;;;;;;;0.60;0.60;;;;;;;22.27;58.48;100636.78;5096020;28;20048;-67
2022/10/07 11:07:08;;;;;;;0.63;0.63;;;;;;;22.35;57.90;100628.72;5096224;28;20052;-66
2022/10/07 11:09:41;;;;;;;1.05;1.00;;;;;;;22.44;58.11;100629.25;5095939;28;20060;-67
2022/10/07 11:12:21;;;;;;;1.88;1.15;;;;;;;22.51;57.66;100628.16;5095604;28;20048;-67
2022/10/07 11:14:55;;;;;;;1.63;1.30;;;;;;;22.34;57.47;100617.47;5095188;28;20046;-67
2022/10/07 11:17:31;;;;;;;1.77;0.90;;;;;;;22.40;57.44;100614.66;5093575;28;20508;-68
2022/10/07 11:20:14;;;;;;;0.75;0.70;;;;;;;22.61;57.77;100608.75;5083535;28;20040;-67
2022/10/07 11:22:51;;;;;;;1.73;1.63;;;;;;;22.75;58.04;100608.25;5095288;28;20052;-67
2022/10/07 11:25:28;;;;;;;0.50;0.50;;;;;;;22.68;57.33;100601.56;5095787;28;20040;-66
2022/10/07 11:28:07;;;;;;;1.00;0.80;;;;;;;22.74;57.27;100585.75;5095485;28;20048;-67
2022/10/07 11:30:48;;;;;;;0.88;0.80;;;;;;;22.76;57.37;100593.47;5095552;28;20059;-66
2022/10/07 11:33:23;;;;;;;0.70;0.68;;;;;;;22.76;57.13;100585.66;5095341;28;20052;-67
2022/10/07 11:35:57;;;;;;;0.60;0.60;;;;;;;22.72;57.01;100587.56;5095417;28;20043;-66
2022/10/07 11:38:32;;;;;;;0.82;0.70;;;;;;;22.70;56.04;100578.09;5095408;28;20044;-68
2022/10/07 11:41:04;;;;;;;1.27;0.93;;;;;;;22.76;55.57;100572.66;5095195;28;20055;-66
2022/10/07 11:43:40;;;;;;;1.45;1.20;;;;;;;22.97;55.81;100571.88;5090109;28;20490;-67
2022/10/07 11:46:16;;;;;;;0.80;0.80;;;;;;;23.07;56.04;100565.41;5086836;28;20056;-68
2022/10/07 11:48:48;;;;;;;1.45;1.13;;;;;;;22.92;56.29;100563.38;5095734;28;20131;-67
2022/10/07 11:51:24;;;;;;;0.40;0.40;;;;;;;22.89;55.54;100556.53;5094172;28;20445;-68
2022/10/07 11:53:58;;;;;;;0.80;0.80;;;;;;;22.96;55.28;100562.38;5074634;28;20131;-66
2022/10/07 11:56:28;;;;;;;0.50;0.50;;;;;;;22.97;54.76;100553.63;5091837;28;20044;-68
2022/10/07 11:59:01;;;;;;;0.73;0.73;;;;;;;23.12;55.15;100550.47;5095057;28;20050;-68
2022/10/07 12:01:52;;;;;;;0.77;0.77;;;;;;;23.22;55.42;100546.59;5088399;28;20044;-68
2022/10/07 12:04:36;;;;;;;1.02;0.93;;;;;;;23.21;55.60;100540.53;5083391;28;20052;-68